Time;durP1;ratioP1;P1;durP2;ratioP2;P2;SDS_P1;SDS_P2;PMS_P1;PMS_P2;Temp;Humidity;BMP_temperature;BMP_pressure;BME280_temperature;BME280_humidity;BME280_pressure;Samples;Min_cycle;Max_cycle;Signal;HPM_P1;HPM_P2
2022/03/21 00:02:11;;;;;;;17.42;9.50;;;;;;;;;;4992467;28;20050;-80
2022/03/21 00:04:36;;;;;;;19.80;10.07;;;;;;;;;;4988244;28;20026;-80
2022/03/21 00:07:02;;;;;;;22.73;10.38;;;;;;;;;;4989557;28;20030;-80
2022/03/21 00:09:27;;;;;;;18.23;10.35;;;;;;;;;;4992628;28;20122;-81
2022/03/21 00:11:53;;;;;;;22.58;12.05;;;;;;;;;;4988976;28;20445;-80
2022/03/21 00:14:19;;;;;;;30.48;13.32;;;;;;;;;;4992685;28;20030;-81
2022/03/21 00:16:44;;;;;;;20.23;11.05;;;;;;;;;;4991985;28;20050;-80
2022/03/21 00:19:09;;;;;;;34.10;16.80;;;;;;;;;;4993838;28;20027;-80
2022/03/21 00:21:35;;;;;;;102.35;40.33;;;;;;;;;;4992060;28;20042;-81
2022/03/21 00:24:03;;;;;;;21.40;10.38;;;;;;;;;;4985851;28;20034;-80
2022/03/21 00:26:29;;;;;;;16.92;9.80;;;;;;;;;;4986548;28;20030;-81
2022/03/21 00:28:54;;;;;;;20.13;10.90;;;;;;;;;;4979571;28;20031;-81
2022/03/21 00:31:20;;;;;;;18.27;10.52;;;;;;;;;;4979334;28;20027;-80
2022/03/21 00:33:45;;;;;;;22.65;12.48;;;;;;;;;;4984661;28;20043;-80
2022/03/21 00:36:11;;;;;;;25.80;13.13;;;;;;;;;;4981737;28;20101;-81
2022/03/21 00:38:37;;;;;;;25.05;14.02;;;;;;;;;;4985615;28;20035;-81
2022/03/21 00:41:06;;;;;;;27.20;15.10;;;;;;;;;;4969620;28;20045;-80
2022/03/21 00:43:31;;;;;;;22.58;12.35;;;;;;;;;;4979400;28;20033;-81
2022/03/21 00:45:57;;;;;;;31.08;14.30;;;;;;;;;;4977099;28;20045;-82
2022/03/21 00:48:25;;;;;;;29.90;14.55;;;;;;;;;;4983750;28;20026;-80
2022/03/21 00:50:52;;;;;;;25.40;13.77;;;;;;;;;;4990296;28;20030;-80
2022/03/21 00:53:18;;;;;;;26.70;13.15;;;;;;;;;;4993798;28;20034;-80
2022/03/21 00:55:44;;;;;;;23.23;12.52;;;;;;;;;;4986087;28;20162;-80
2022/03/21 00:58:09;;;;;;;23.13;12.23;;;;;;;;;;4988802;28;20369;-80
2022/03/21 01:00:35;;;;;;;21.17;12.52;;;;;;;;;;4984291;28;20054;-80
2022/03/21 01:03:01;;;;;;;21.98;11.57;;;;;;;;;;4985823;28;20026;-80
2022/03/21 01:05:27;;;;;;;19.98;11.15;;;;;;;;;;4987703;28;20026;-81
2022/03/21 01:07:53;;;;;;;21.83;11.98;;;;;;;;;;5020775;28;20041;-80
2022/03/21 01:10:21;;;;;;;25.40;11.45;;;;;;;;;;5022131;28;20057;-80
2022/03/21 01:12:48;;;;;;;21.05;12.15;;;;;;;;;;5021540;28;20041;-81
2022/03/21 01:15:15;;;;;;;23.40;12.18;;;;;;;;;;5021742;28;20504;-81
2022/03/21 01:17:42;;;;;;;21.42;11.07;;;;;;;;;;5022693;28;20050;-82
2022/03/21 01:20:09;;;;;;;21.55;11.10;;;;;;;;;;4985322;28;20397;-79
2022/03/21 01:22:34;;;;;;;22.27;10.60;;;;;;;;;;5007198;28;20018;-82
2022/03/21 01:25:00;;;;;;;22.52;10.02;;;;;;;;;;5021221;28;20062;-83
2022/03/21 01:27:25;;;;;;;19.52;10.13;;;;;;;;;;5016913;28;20026;-82
2022/03/21 01:29:50;;;;;;;20.33;10.90;;;;;;;;;;4993410;28;20165;-82
2022/03/21 01:32:16;;;;;;;14.60;9.77;;;;;;;;;;5011794;28;20113;-81
2022/03/21 01:34:41;;;;;;;15.63;9.23;;;;;;;;;;5017940;28;20021;-80
2022/03/21 01:37:07;;;;;;;16.95;9.07;;;;;;;;;;5000995;28;20027;-82
2022/03/21 01:39:32;;;;;;;17.13;9.25;;;;;;;;;;5000179;28;20496;-80
2022/03/21 01:41:58;;;;;;;18.95;10.57;;;;;;;;;;5020111;28;20496;-80
2022/03/21 01:44:23;;;;;;;19.67;9.07;;;;;;;;;;5012668;28;20025;-80
2022/03/21 01:46:49;;;;;;;17.92;8.82;;;;;;;;;;5001657;28;20026;-80
2022/03/21 01:49:14;;;;;;;15.90;9.38;;;;;;;;;;4974791;28;20110;-80
2022/03/21 01:51:41;;;;;;;16.60;9.57;;;;;;;;;;4981303;28;20033;-79
2022/03/21 01:56:52;;;;;;;15.50;8.35;;;;;;;;;;5002353;28;20033;-80
2022/03/21 01:59:19;;;;;;;14.88;8.60;;;;;;;;;;5001646;28;20030;-80
2022/03/21 02:01:45;;;;;;;15.77;8.60;;;;;;;;;;5000869;28;20026;-80
2022/03/21 02:04:10;;;;;;;16.25;9.38;;;;;;;;;;4985202;28;20032;-80
2022/03/21 02:06:36;;;;;;;17.95;9.38;;;;;;;;;;5012090;28;20082;-80
2022/03/21 02:09:04;;;;;;;17.65;9.93;;;;;;;;;;5020618;28;20017;-80
2022/03/21 02:11:30;;;;;;;16.20;10.18;;;;;;;;;;4989754;28;20011;-81
2022/03/21 02:13:57;;;;;;;19.85;10.20;;;;;;;;;;5016952;28;20029;-81
2022/03/21 02:16:25;;;;;;;17.50;9.65;;;;;;;;;;5002375;28;20037;-80
2022/03/21 02:18:50;;;;;;;16.85;8.82;;;;;;;;;;5018362;28;20108;-80
2022/03/21 02:21:26;;;;;;;15.70;8.68;;;;;;;;;;4999944;28;20465;-79
2022/03/21 02:23:59;;;;;;;19.27;9.02;;;;;;;;;;4981227;28;20022;-80
2022/03/21 02:26:25;;;;;;;17.27;8.10;;;;;;;;;;4992458;28;20018;-80
2022/03/21 02:28:51;;;;;;;16.65;9.07;;;;;;;;;;4999670;28;20231;-80
2022/03/21 02:31:17;;;;;;;17.42;8.45;;;;;;;;;;4999070;28;20490;-79
2022/03/21 02:33:43;;;;;;;15.23;8.95;;;;;;;;;;5011831;28;20037;-80
2022/03/21 02:36:09;;;;;;;12.75;8.13;;;;;;;;;;5009433;28;20026;-80
2022/03/21 02:38:36;;;;;;;16.73;9.40;;;;;;;;;;5018777;28;20018;-80
2022/03/21 02:41:02;;;;;;;15.80;8.93;;;;;;;;;;5005182;28;20026;-80
2022/03/21 02:43:27;;;;;;;15.57;9.15;;;;;;;;;;5011006;28;20072;-80
2022/03/21 02:46:03;;;;;;;17.58;9.38;;;;;;;;;;5000500;28;20084;-80
2022/03/21 02:48:28;;;;;;;14.70;8.55;;;;;;;;;;4991745;28;20018;-79
2022/03/21 02:51:02;;;;;;;14.57;8.63;;;;;;;;;;5014177;28;20079;-80
2022/03/21 02:53:30;;;;;;;16.98;7.75;;;;;;;;;;4981847;28;20041;-80
2022/03/21 02:55:56;;;;;;;18.85;9.05;;;;;;;;;;4998968;28;20166;-79
2022/03/21 02:58:22;;;;;;;15.75;8.77;;;;;;;;;;4998298;28;20038;-80
2022/03/21 03:00:48;;;;;;;15.85;8.77;;;;;;;;;;4998388;28;20389;-79
2022/03/21 03:03:14;;;;;;;17.70;9.43;;;;;;;;;;4980808;28;20038;-79
2022/03/21 03:05:39;;;;;;;17.98;9.80;;;;;;;;;;5006379;28;20030;-80
2022/03/21 03:08:04;;;;;;;20.35;9.35;;;;;;;;;;5016222;28;20034;-80
2022/03/21 03:10:30;;;;;;;25.45;10.93;;;;;;;;;;5012270;28;20396;-80
2022/03/21 03:12:56;;;;;;;16.10;9.05;;;;;;;;;;4984246;28;20127;-80
2022/03/21 03:15:21;;;;;;;16.50;8.55;;;;;;;;;;4996970;28;20116;-80
2022/03/21 03:17:46;;;;;;;16.25;8.75;;;;;;;;;;4997780;28;20063;-79
2022/03/21 03:20:12;;;;;;;17.67;9.45;;;;;;;;;;4998404;28;20025;-80
2022/03/21 03:22:39;;;;;;;15.40;8.82;;;;;;;;;;4998265;28;20033;-80
2022/03/21 03:25:05;;;;;;;16.70;8.73;;;;;;;;;;5004863;28;20357;-80
2022/03/21 03:27:31;;;;;;;18.55;10.32;;;;;;;;;;4997235;28;20026;-79
2022/03/21 03:29:57;;;;;;;17.27;9.38;;;;;;;;;;4981079;28;20026;-79
2022/03/21 03:32:23;;;;;;;22.00;10.88;;;;;;;;;;5019537;28;20030;-79
2022/03/21 03:34:49;;;;;;;31.05;14.90;;;;;;;;;;5013924;28;20048;-80
2022/03/21 03:37:15;;;;;;;36.83;17.17;;;;;;;;;;5009550;28;20410;-79
2022/03/21 03:39:40;;;;;;;36.20;15.32;;;;;;;;;;5009491;28;20022;-79
2022/03/21 03:42:06;;;;;;;27.23;13.32;;;;;;;;;;5007911;28;20023;-79
2022/03/21 03:44:32;;;;;;;23.48;10.98;;;;;;;;;;5016994;28;20042;-80
2022/03/21 03:46:57;;;;;;;20.80;10.07;;;;;;;;;;5017394;28;20069;-81
2022/03/21 03:49:23;;;;;;;22.08;11.73;;;;;;;;;;5009174;28;20017;-79
2022/03/21 03:51:49;;;;;;;25.08;12.13;;;;;;;;;;5017655;28;20033;-80
2022/03/21 03:54:14;;;;;;;27.92;14.15;;;;;;;;;;5015657;28;20544;-82
2022/03/21 03:56:40;;;;;;;35.58;15.13;;;;;;;;;;4998444;28;20488;-82
2022/03/21 03:59:05;;;;;;;32.88;14.98;;;;;;;;;;5017303;28;20566;-79
2022/03/21 04:01:30;;;;;;;25.60;12.65;;;;;;;;;;5013728;28;20034;-80
2022/03/21 04:03:59;;;;;;;26.20;11.90;;;;;;;;;;4980150;28;20034;-80
2022/03/21 04:06:25;;;;;;;23.02;10.95;;;;;;;;;;5009203;28;20053;-80
2022/03/21 04:08:52;;;;;;;19.98;10.80;;;;;;;;;;5010097;28;20085;-80
2022/03/21 04:11:18;;;;;;;22.73;10.82;;;;;;;;;;4982817;28;20018;-78
2022/03/21 04:13:44;;;;;;;21.65;10.52;;;;;;;;;;5000214;28;20036;-81
2022/03/21 04:16:10;;;;;;;22.65;11.20;;;;;;;;;;5004134;28;20050;-80
2022/03/21 04:18:36;;;;;;;25.88;10.75;;;;;;;;;;4995451;28;20169;-79
2022/03/21 04:21:03;;;;;;;14.18;8.57;;;;;;;;;;4995904;28;20022;-80
2022/03/21 04:23:28;;;;;;;17.15;10.13;;;;;;;;;;4997708;28;20032;-80
2022/03/21 04:25:54;;;;;;;20.13;10.05;;;;;;;;;;4988775;28;20026;-80
2022/03/21 04:28:19;;;;;;;19.73;10.52;;;;;;;;;;4997753;28;20058;-80
2022/03/21 04:30:45;;;;;;;19.17;9.75;;;;;;;;;;4980208;28;20014;-80
2022/03/21 04:33:14;;;;;;;18.60;9.20;;;;;;;;;;4997969;28;20027;-80
2022/03/21 04:35:40;;;;;;;17.70;10.02;;;;;;;;;;5007862;28;20026;-80
2022/03/21 04:38:15;;;;;;;18.92;9.90;;;;;;;;;;5019238;28;20033;-80
2022/03/21 04:40:41;;;;;;;18.20;9.32;;;;;;;;;;5010149;28;20519;-80
2022/03/21 04:43:08;;;;;;;18.40;10.15;;;;;;;;;;4983249;28;20123;-80
2022/03/21 04:45:34;;;;;;;16.05;9.15;;;;;;;;;;4999802;28;20030;-79
2022/03/21 04:47:59;;;;;;;15.93;9.60;;;;;;;;;;4996472;28;20019;-79
2022/03/21 04:50:25;;;;;;;15.55;8.90;;;;;;;;;;5000047;28;20387;-79
2022/03/21 04:52:50;;;;;;;15.40;9.15;;;;;;;;;;4999894;28;20033;-79
2022/03/21 04:55:15;;;;;;;17.02;9.35;;;;;;;;;;4998726;28;20057;-79
2022/03/21 04:57:41;;;;;;;15.80;9.43;;;;;;;;;;5000060;28;20030;-79
2022/03/21 05:00:07;;;;;;;16.25;9.48;;;;;;;;;;5000011;28;20038;-79
2022/03/21 05:02:32;;;;;;;16.08;9.63;;;;;;;;;;5000036;28;20026;-79
2022/03/21 05:04:58;;;;;;;17.67;9.98;;;;;;;;;;4989407;28;20029;-79
2022/03/21 05:07:23;;;;;;;20.58;10.70;;;;;;;;;;5012292;28;20026;-79
2022/03/21 05:09:48;;;;;;;17.25;9.15;;;;;;;;;;5014693;28;20026;-79
2022/03/21 05:12:14;;;;;;;15.88;9.80;;;;;;;;;;5010897;28;20105;-79
2022/03/21 05:14:39;;;;;;;19.70;9.80;;;;;;;;;;5019117;28;20058;-79
2022/03/21 05:17:05;;;;;;;18.17;9.13;;;;;;;;;;5019395;28;20473;-79
2022/03/21 05:19:36;;;;;;;16.48;8.90;;;;;;;;;;5004587;28;20030;-79
2022/03/21 05:22:06;;;;;;;48.30;10.13;;;;;;;;;;5016876;28;20340;-79
2022/03/21 05:32:43;;;;;;;21.42;8.75;;;;;;;;;;5019257;28;20104;-79
2022/03/21 05:37:55;;;;;;;16.70;8.98;;;;;;;;;;5016084;28;20053;-79
2022/03/21 05:40:35;;;;;;;18.23;9.30;;;;;;;;;;5005723;28;20563;-79
2022/03/21 05:43:01;;;;;;;17.55;9.65;;;;;;;;;;5007845;28;20030;-80
2022/03/21 05:45:28;;;;;;;17.90;9.18;;;;;;;;;;4999926;28;20045;-79
2022/03/21 05:50:38;;;;;;;16.33;9.27;;;;;;;;;;4993795;28;20316;-79
2022/03/21 05:53:06;;;;;;;16.83;8.95;;;;;;;;;;4997024;28;20401;-79
2022/03/21 05:55:32;;;;;;;17.15;9.43;;;;;;;;;;4984337;28;20045;-79
2022/03/21 05:57:58;;;;;;;15.43;9.00;;;;;;;;;;4996944;28;20405;-79
2022/03/21 06:00:25;;;;;;;17.80;9.55;;;;;;;;;;5004168;28;20028;-80
2022/03/21 06:02:51;;;;;;;20.35;9.50;;;;;;;;;;4978003;28;20039;-79
2022/03/21 06:05:23;;;;;;;16.38;8.63;;;;;;;;;;5003844;28;20556;-79
2022/03/21 06:07:49;;;;;;;17.75;9.20;;;;;;;;;;4981686;28;20181;-81
2022/03/21 06:10:15;;;;;;;18.13;9.25;;;;;;;;;;4991913;28;20062;-81
2022/03/21 06:12:42;;;;;;;20.25;9.15;;;;;;;;;;4983324;28;20062;-80
2022/03/21 06:15:09;;;;;;;14.82;8.52;;;;;;;;;;4985119;28;20026;-80
2022/03/21 06:17:41;;;;;;;18.38;9.43;;;;;;;;;;4996346;28;20034;-81
2022/03/21 06:20:12;;;;;;;15.70;8.68;;;;;;;;;;4996413;28;20026;-81
2022/03/21 06:22:40;;;;;;;15.10;8.35;;;;;;;;;;4979251;28;20022;-86
2022/03/21 06:25:07;;;;;;;16.42;8.73;;;;;;;;;;4994353;28;20027;-81
2022/03/21 06:27:34;;;;;;;14.88;7.97;;;;;;;;;;4975795;28;20057;-81
2022/03/21 06:30:00;;;;;;;13.82;7.80;;;;;;;;;;4996504;28;20528;-80
2022/03/21 06:32:26;;;;;;;16.25;8.43;;;;;;;;;;4996547;28;20030;-80
2022/03/21 06:34:52;;;;;;;18.95;9.25;;;;;;;;;;5004220;28;20017;-80
2022/03/21 06:37:18;;;;;;;17.88;9.05;;;;;;;;;;4987072;28;20089;-81
2022/03/21 06:39:43;;;;;;;16.90;9.20;;;;;;;;;;5007084;28;20046;-82
2022/03/21 06:42:11;;;;;;;17.75;8.55;;;;;;;;;;4993528;28;20056;-81
2022/03/21 06:44:37;;;;;;;15.90;9.32;;;;;;;;;;5027806;28;20026;-81
2022/03/21 06:47:03;;;;;;;19.08;8.52;;;;;;;;;;4999694;28;20033;-81
2022/03/21 06:49:30;;;;;;;16.58;9.13;;;;;;;;;;4993284;28;20030;-81
2022/03/21 06:51:59;;;;;;;15.35;8.68;;;;;;;;;;4997524;28;20448;-81
2022/03/21 06:54:24;;;;;;;14.18;8.13;;;;;;;;;;4978402;28;20034;-81
2022/03/21 06:56:49;;;;;;;17.50;9.13;;;;;;;;;;4978540;28;20126;-81
2022/03/21 06:59:15;;;;;;;14.90;8.75;;;;;;;;;;4977703;28;20048;-81
2022/03/21 07:01:40;;;;;;;14.90;9.00;;;;;;;;;;4988637;28;20054;-82
2022/03/21 07:04:05;;;;;;;15.32;8.68;;;;;;;;;;4990471;28;20089;-81
2022/03/21 07:06:31;;;;;;;13.35;8.20;;;;;;;;;;4988450;28;20022;-80
2022/03/21 07:08:56;;;;;;;19.08;10.18;;;;;;;;;;4993577;28;20373;-81
2022/03/21 07:11:22;;;;;;;15.00;8.57;;;;;;;;;;4993043;28;20025;-81
2022/03/21 07:13:48;;;;;;;19.90;8.65;;;;;;;;;;5011517;28;20052;-81
2022/03/21 07:16:16;;;;;;;13.82;9.02;;;;;;;;;;5014903;28;20026;-81
2022/03/21 07:18:44;;;;;;;18.90;9.70;;;;;;;;;;4995152;28;20058;-81
2022/03/21 07:21:11;;;;;;;16.90;8.82;;;;;;;;;;4996660;28;20019;-82
2022/03/21 07:23:37;;;;;;;13.23;8.48;;;;;;;;;;4997458;28;20029;-81
2022/03/21 07:26:02;;;;;;;16.92;8.57;;;;;;;;;;4996890;28;20015;-81
2022/03/21 07:28:28;;;;;;;20.80;8.25;;;;;;;;;;4997481;28;20372;-82
2022/03/21 07:30:54;;;;;;;20.15;9.18;;;;;;;;;;4997273;28;20077;-81
2022/03/21 07:33:20;;;;;;;14.75;9.13;;;;;;;;;;4997628;28;20035;-81
2022/03/21 07:35:46;;;;;;;19.42;8.68;;;;;;;;;;4994985;28;20033;-81
2022/03/21 07:38:12;;;;;;;15.65;9.05;;;;;;;;;;4978754;28;20033;-81
2022/03/21 07:40:37;;;;;;;19.88;9.77;;;;;;;;;;4995499;28;20018;-81
2022/03/21 07:43:03;;;;;;;14.20;9.02;;;;;;;;;;4995584;28;20393;-80
2022/03/21 07:48:12;;;;;;;14.85;9.68;;;;;;;;;;4994087;28;20081;-81
2022/03/21 07:50:38;;;;;;;16.75;9.15;;;;;;;;;;4994581;28;20030;-82
2022/03/21 07:53:24;;;;;;;16.00;8.80;;;;;;;;;;4978466;28;20481;-84
2022/03/21 07:55:49;;;;;;;18.45;8.68;;;;;;;;;;4998017;28;20110;-82
2022/03/21 07:58:15;;;;;;;13.80;8.63;;;;;;;;;;4997242;28;20050;-81
2022/03/21 08:00:41;;;;;;;15.07;8.80;;;;;;;;;;4975919;28;20110;-80
2022/03/21 08:03:09;;;;;;;14.18;8.82;;;;;;;;;;4988690;28;20440;-81
2022/03/21 08:05:34;;;;;;;13.55;9.15;;;;;;;;;;4994026;28;20473;-80
2022/03/21 08:08:00;;;;;;;15.60;8.35;;;;;;;;;;4994775;28;20037;-81
2022/03/21 08:10:27;;;;;;;17.60;9.55;;;;;;;;;;4996439;28;20315;-81
2022/03/21 08:12:52;;;;;;;14.93;8.73;;;;;;;;;;4998046;28;20393;-80
2022/03/21 08:15:18;;;;;;;14.68;9.02;;;;;;;;;;4998481;28;20026;-81
2022/03/21 08:17:52;;;;;;;14.23;9.02;;;;;;;;;;4998991;28;20058;-81
2022/03/21 08:20:22;;;;;;;15.07;8.30;;;;;;;;;;4981226;28;20021;-81
2022/03/21 08:22:48;;;;;;;16.58;8.82;;;;;;;;;;4996218;28;20053;-80
2022/03/21 08:25:17;;;;;;;13.70;8.30;;;;;;;;;;4968838;28;20450;-80
2022/03/21 08:27:47;;;;;;;16.55;7.97;;;;;;;;;;4962806;28;20094;-81
2022/03/21 08:30:15;;;;;;;16.63;8.90;;;;;;;;;;4979296;28;20046;-80
2022/03/21 08:32:41;;;;;;;14.98;8.85;;;;;;;;;;4992482;28;20086;-80
2022/03/21 08:35:07;;;;;;;14.43;8.57;;;;;;;;;;4981426;28;20081;-81
2022/03/21 08:37:33;;;;;;;15.00;9.20;;;;;;;;;;4999348;28;20026;-80
2022/03/21 08:39:58;;;;;;;14.85;8.38;;;;;;;;;;4978950;28;20027;-80
2022/03/21 08:42:23;;;;;;;13.57;9.32;;;;;;;;;;5001685;28;20026;-80
2022/03/21 08:44:49;;;;;;;14.18;8.75;;;;;;;;;;4972496;28;20022;-82
2022/03/21 08:47:14;;;;;;;15.98;9.10;;;;;;;;;;4979703;28;20026;-80
2022/03/21 08:49:39;;;;;;;20.35;10.05;;;;;;;;;;4978018;28;20027;-81
2022/03/21 08:52:06;;;;;;;19.75;9.45;;;;;;;;;;5001498;28;20030;-81
2022/03/21 08:54:32;;;;;;;15.75;9.40;;;;;;;;;;4987211;28;20065;-80
2022/03/21 08:56:57;;;;;;;17.85;9.52;;;;;;;;;;4979444;28;20035;-81
2022/03/21 08:59:23;;;;;;;14.57;9.73;;;;;;;;;;4986336;28;20070;-82
2022/03/21 09:01:48;;;;;;;16.65;9.15;;;;;;;;;;4978776;28;20050;-81
2022/03/21 09:04:13;;;;;;;19.38;10.07;;;;;;;;;;4985364;28;20509;-82
2022/03/21 09:06:39;;;;;;;14.98;10.10;;;;;;;;;;5009150;28;20072;-82
2022/03/21 09:09:05;;;;;;;17.00;10.18;;;;;;;;;;5019312;28;20033;-81
2022/03/21 09:11:30;;;;;;;20.83;10.07;;;;;;;;;;4997541;28;20040;-80
2022/03/21 09:13:56;;;;;;;18.08;9.48;;;;;;;;;;5001164;28;20089;-81
2022/03/21 09:16:21;;;;;;;17.13;9.13;;;;;;;;;;4998894;28;20029;-81
2022/03/21 09:18:47;;;;;;;20.77;10.55;;;;;;;;;;4997469;28;20426;-81
2022/03/21 09:21:13;;;;;;;15.00;9.45;;;;;;;;;;4979991;28;20022;-82
2022/03/21 09:23:39;;;;;;;19.98;9.82;;;;;;;;;;4997526;28;20026;-81
2022/03/21 09:26:10;;;;;;;20.92;10.50;;;;;;;;;;4997630;28;20022;-82
2022/03/21 09:28:36;;;;;;;16.15;10.18;;;;;;;;;;4997502;28;20076;-81
2022/03/21 09:31:01;;;;;;;15.18;9.55;;;;;;;;;;4997676;28;20113;-80
2022/03/21 09:33:28;;;;;;;19.02;9.30;;;;;;;;;;4997843;28;20102;-81
2022/03/21 09:35:53;;;;;;;20.40;9.98;;;;;;;;;;4996540;28;20026;-81
2022/03/21 09:38:19;;;;;;;19.02;10.27;;;;;;;;;;5017108;28;20041;-82
2022/03/21 09:40:45;;;;;;;22.35;10.20;;;;;;;;;;5009939;28;20064;-81
2022/03/21 09:43:12;;;;;;;16.35;9.73;;;;;;;;;;4997956;28;20030;-82
2022/03/21 09:45:38;;;;;;;14.88;9.52;;;;;;;;;;4997179;28;20374;-82
2022/03/21 09:48:17;;;;;;;21.60;9.82;;;;;;;;;;4997124;28;20027;-81
2022/03/21 09:50:44;;;;;;;17.50;9.40;;;;;;;;;;4978546;28;20034;-81
2022/03/21 09:53:15;;;;;;;24.60;10.95;;;;;;;;;;4977878;28;20117;-81
2022/03/21 09:55:44;;;;;;;23.08;11.00;;;;;;;;;;4997270;28;20186;-85
2022/03/21 09:58:10;;;;;;;18.48;10.35;;;;;;;;;;4979833;28;20066;-81
2022/03/21 10:00:41;;;;;;;16.35;9.68;;;;;;;;;;4999152;28;20018;-81
2022/03/21 10:03:07;;;;;;;15.52;10.23;;;;;;;;;;4997763;28;20073;-82
2022/03/21 10:05:37;;;;;;;20.20;9.82;;;;;;;;;;5010984;28;20034;-82
2022/03/21 10:08:20;;;;;;;15.13;9.63;;;;;;;;;;5010597;28;20081;-81
2022/03/21 10:11:01;;;;;;;19.23;10.15;;;;;;;;;;4982660;28;20027;-81
2022/03/21 10:13:32;;;;;;;16.90;10.07;;;;;;;;;;4999415;28;20026;-83
2022/03/21 10:16:08;;;;;;;16.13;9.98;;;;;;;;;;4998661;28;20529;-81
2022/03/21 10:18:33;;;;;;;18.80;10.68;;;;;;;;;;5012775;28;20042;-82
2022/03/21 10:21:13;;;;;;;18.17;10.05;;;;;;;;;;5020101;28;20025;-81
2022/03/21 10:23:39;;;;;;;19.25;10.45;;;;;;;;;;5022402;28;20093;-81
2022/03/21 10:26:28;;;;;;;15.25;9.98;;;;;;;;;;5016209;28;20065;-82
2022/03/21 10:28:56;;;;;;;19.15;10.93;;;;;;;;;;4999235;28;20032;-81
2022/03/21 10:31:43;;;;;;;19.42;10.63;;;;;;;;;;4981637;28;20026;-81
2022/03/21 10:34:16;;;;;;;16.70;10.93;;;;;;;;;;5000439;28;20505;-81
2022/03/21 10:37:04;;;;;;;15.63;10.55;;;;;;;;;;5010963;28;20029;-81
2022/03/21 10:39:40;;;;;;;14.63;9.75;;;;;;;;;;5010876;28;20032;-81
2022/03/21 10:42:09;;;;;;;15.52;10.40;;;;;;;;;;5007424;28;20503;-82
2022/03/21 10:44:35;;;;;;;19.30;11.23;;;;;;;;;;5018809;28;20022;-82
2022/03/21 10:47:03;;;;;;;16.35;11.10;;;;;;;;;;5018767;28;20026;-81
2022/03/21 10:49:46;;;;;;;17.92;10.65;;;;;;;;;;4984986;28;20033;-81
2022/03/21 10:52:19;;;;;;;20.60;11.73;;;;;;;;;;4999579;28;20456;-81
2022/03/21 10:54:50;;;;;;;17.65;10.68;;;;;;;;;;4982190;28;20022;-81
2022/03/21 10:57:31;;;;;;;17.95;10.90;;;;;;;;;;4979999;28;20372;-81
2022/03/21 11:00:20;;;;;;;19.45;10.82;;;;;;;;;;4997992;28;20481;-81
2022/03/21 11:03:00;;;;;;;18.20;10.50;;;;;;;;;;4997455;28;20473;-80
2022/03/21 11:05:28;;;;;;;20.13;11.43;;;;;;;;;;4995502;28;20022;-82
2022/03/21 11:07:54;;;;;;;18.80;11.20;;;;;;;;;;4989065;28;20040;-82
2022/03/21 11:10:21;;;;;;;17.60;11.25;;;;;;;;;;4993667;28;20506;-82
2022/03/21 11:12:47;;;;;;;21.13;11.13;;;;;;;;;;5012677;28;20029;-81
2022/03/21 11:15:13;;;;;;;18.58;11.48;;;;;;;;;;4994836;28;20034;-81
2022/03/21 11:17:41;;;;;;;17.75;11.68;;;;;;;;;;4980243;28;20576;-81
2022/03/21 11:20:17;;;;;;;23.25;11.40;;;;;;;;;;4985973;28;20031;-87
2022/03/21 11:22:43;;;;;;;21.45;11.05;;;;;;;;;;4976502;28;20551;-81
2022/03/21 11:25:21;;;;;;;17.92;11.15;;;;;;;;;;4975468;28;20030;-81
2022/03/21 11:28:20;;;;;;;21.08;10.88;;;;;;;;;;4975891;28;20042;-80
2022/03/21 11:30:57;;;;;;;16.80;10.75;;;;;;;;;;5001090;28;20026;-80
2022/03/21 11:33:32;;;;;;;22.13;10.90;;;;;;;;;;4989492;28;20026;-79
2022/03/21 11:36:03;;;;;;;18.85;10.82;;;;;;;;;;5003640;28;20027;-81
2022/03/21 11:38:41;;;;;;;15.65;10.20;;;;;;;;;;4986236;28;20030;-81
2022/03/21 11:41:24;;;;;;;17.60;9.82;;;;;;;;;;4997128;28;20037;-85
2022/03/21 11:44:14;;;;;;;16.27;10.25;;;;;;;;;;4979229;28;20058;-82
2022/03/21 11:46:41;;;;;;;18.33;11.40;;;;;;;;;;4992242;28;20030;-81
2022/03/21 11:49:18;;;;;;;18.27;10.95;;;;;;;;;;4990682;28;20141;-80
2022/03/21 11:51:53;;;;;;;17.13;10.13;;;;;;;;;;5003741;28;20596;-81
2022/03/21 11:54:29;;;;;;;20.90;11.38;;;;;;;;;;4982312;28;20066;-81
2022/03/21 11:56:55;;;;;;;18.38;11.13;;;;;;;;;;4980684;28;20101;-81
2022/03/21 11:59:48;;;;;;;16.13;10.70;;;;;;;;;;4980931;28;20437;-80
2022/03/21 12:02:13;;;;;;;17.95;11.35;;;;;;;;;;4980824;28;20090;-79
2022/03/21 12:04:42;;;;;;;16.73;10.45;;;;;;;;;;4990068;28;20075;-82
2022/03/21 12:07:14;;;;;;;20.17;10.52;;;;;;;;;;4999597;28;20022;-81
2022/03/21 12:09:47;;;;;;;17.35;10.73;;;;;;;;;;4996493;28;20234;-81
2022/03/21 12:12:13;;;;;;;19.13;10.30;;;;;;;;;;5007587;28;20022;-82
2022/03/21 12:14:45;;;;;;;17.33;10.30;;;;;;;;;;4994441;23;20118;-82
2022/03/21 12:17:11;;;;;;;19.48;10.68;;;;;;;;;;4979177;28;20082;-82
2022/03/21 12:19:50;;;;;;;17.13;10.10;;;;;;;;;;4975511;28;20042;-81
2022/03/21 12:22:30;;;;;;;16.92;10.52;;;;;;;;;;4987171;28;20046;-82
2022/03/21 12:24:57;;;;;;;14.10;9.90;;;;;;;;;;4951030;28;20027;-82
2022/03/21 12:27:41;;;;;;;18.00;9.32;;;;;;;;;;4942144;28;20078;-83
2022/03/21 12:30:29;;;;;;;17.23;10.10;;;;;;;;;;4973711;28;20019;-82
2022/03/21 12:32:54;;;;;;;13.88;9.07;;;;;;;;;;4940782;29;20052;-81
2022/03/21 12:35:32;;;;;;;19.20;9.13;;;;;;;;;;4949273;28;20026;-80
2022/03/21 12:38:09;;;;;;;16.08;10.20;;;;;;;;;;4977509;28;20477;-81
2022/03/21 12:40:55;;;;;;;15.88;8.95;;;;;;;;;;4940715;28;20113;-81
2022/03/21 12:43:41;;;;;;;19.20;9.65;;;;;;;;;;4939732;29;20118;-81
2022/03/21 12:46:07;;;;;;;16.02;9.25;;;;;;;;;;4941494;29;20032;-80
2022/03/21 12:48:37;;;;;;;16.67;8.40;;;;;;;;;;4945013;29;20027;-81
2022/03/21 12:51:05;;;;;;;19.20;9.68;;;;;;;;;;4932363;29;20019;-80
2022/03/21 12:53:45;;;;;;;18.08;9.07;;;;;;;;;;4964500;28;20043;-80
2022/03/21 12:56:12;;;;;;;12.93;7.78;;;;;;;;;;4974190;28;20022;-81
2022/03/21 12:58:45;;;;;;;22.83;8.40;;;;;;;;;;4954241;29;20037;-82
2022/03/21 13:01:13;;;;;;;16.95;7.97;;;;;;;;;;4959960;29;20023;-82
2022/03/21 13:03:38;;;;;;;13.98;8.20;;;;;;;;;;4959314;29;20533;-82
2022/03/21 13:11:44;;;;;;;15.27;7.45;;;;;;;;;;4959067;29;20505;-80
2022/03/21 13:14:17;;;;;;;16.58;7.65;;;;;;;;;;4976773;28;20034;-83
2022/03/21 13:16:50;;;;;;;17.50;7.65;;;;;;;;;;4978816;28;20033;-81
2022/03/21 13:19:21;;;;;;;15.00;7.85;;;;;;;;;;4977289;28;20030;-81
2022/03/21 13:21:48;;;;;;;14.48;7.72;;;;;;;;;;4970528;28;20110;-81
2022/03/21 13:24:14;;;;;;;20.90;7.00;;;;;;;;;;4970024;28;20114;-82
2022/03/21 13:26:43;;;;;;;13.35;6.65;;;;;;;;;;4974765;28;20067;-81
2022/03/21 13:29:13;;;;;;;16.77;8.27;;;;;;;;;;4976072;28;20033;-81
2022/03/21 13:31:40;;;;;;;20.30;7.40;;;;;;;;;;4978426;28;20031;-81
2022/03/21 13:34:08;;;;;;;14.27;7.28;;;;;;;;;;4969949;28;20053;-81
2022/03/21 13:36:45;;;;;;;14.15;7.05;;;;;;;;;;4981279;28;20026;-81
2022/03/21 13:39:15;;;;;;;19.95;7.38;;;;;;;;;;4975898;28;20121;-82
2022/03/21 13:42:00;;;;;;;9.25;6.45;;;;;;;;;;4969468;28;20488;-82
2022/03/21 13:44:28;;;;;;;18.17;6.68;;;;;;;;;;4956598;28;20019;-82
2022/03/21 13:47:05;;;;;;;11.98;6.85;;;;;;;;;;4962308;28;20111;-80
2022/03/21 13:49:42;;;;;;;22.25;7.70;;;;;;;;;;4960963;28;20022;-81
2022/03/21 13:52:07;;;;;;;14.73;7.35;;;;;;;;;;4969943;28;20119;-83
2022/03/21 13:54:54;;;;;;;19.73;7.10;;;;;;;;;;4956318;28;20091;-82
2022/03/21 13:57:20;;;;;;;15.73;6.75;;;;;;;;;;4936525;28;20362;-82
2022/03/21 13:59:59;;;;;;;13.95;7.03;;;;;;;;;;4955031;28;20042;-80
2022/03/21 14:02:26;;;;;;;15.20;6.18;;;;;;;;;;4956735;28;20025;-82
2022/03/21 14:04:53;;;;;;;17.55;7.25;;;;;;;;;;4957559;28;20055;-84
2022/03/21 14:07:18;;;;;;;14.00;6.93;;;;;;;;;;4938330;28;20022;-84
2022/03/21 14:09:50;;;;;;;16.73;7.35;;;;;;;;;;4931960;29;20035;-83
2022/03/21 14:12:15;;;;;;;14.40;7.15;;;;;;;;;;4955243;28;20019;-82
2022/03/21 14:14:41;;;;;;;12.32;7.35;;;;;;;;;;4949610;28;20051;-84
2022/03/21 14:17:06;;;;;;;15.82;7.15;;;;;;;;;;4937738;28;20038;-84
2022/03/21 14:19:34;;;;;;;17.45;7.22;;;;;;;;;;4957012;28;20041;-83
2022/03/21 14:22:00;;;;;;;17.60;6.90;;;;;;;;;;4954912;28;20401;-83
2022/03/21 14:24:25;;;;;;;17.15;6.63;;;;;;;;;;4953912;28;20500;-84
2022/03/21 14:26:51;;;;;;;17.27;6.07;;;;;;;;;;4952355;28;20031;-83
2022/03/21 14:29:18;;;;;;;18.13;6.50;;;;;;;;;;4953443;28;20025;-83
2022/03/21 14:31:44;;;;;;;17.08;6.95;;;;;;;;;;4935382;29;20039;-81
2022/03/21 14:34:15;;;;;;;19.75;7.28;;;;;;;;;;4957679;28;20048;-82
2022/03/21 14:36:42;;;;;;;13.50;7.68;;;;;;;;;;4959356;28;20023;-83
2022/03/21 14:39:07;;;;;;;13.23;7.45;;;;;;;;;;4960804;28;20071;-82
2022/03/21 14:41:33;;;;;;;20.98;7.40;;;;;;;;;;4955791;28;20509;-83
2022/03/21 14:43:58;;;;;;;16.58;7.22;;;;;;;;;;4938203;28;20031;-83
2022/03/21 14:46:23;;;;;;;15.48;7.22;;;;;;;;;;4958621;28;20113;-81
2022/03/21 14:48:50;;;;;;;11.63;7.03;;;;;;;;;;4957599;28;20039;-83
2022/03/21 14:51:16;;;;;;;20.00;8.13;;;;;;;;;;4937407;28;20022;-84
2022/03/21 14:53:42;;;;;;;15.98;7.57;;;;;;;;;;4951657;28;20023;-83
2022/03/21 14:56:07;;;;;;;17.67;7.57;;;;;;;;;;4961331;28;20086;-83
2022/03/21 14:58:35;;;;;;;16.42;7.25;;;;;;;;;;4952073;28;20040;-83